WetterOnline ( https://www.wetteronline.de )

Wetter aktuell Friesoythe

Aktuelles Wetter: Friesoythe-Altenoythe (6m)

6-stündlich | Neueste Meldungen
Ortszeit Temperatur Wetter
So, 14.04. 8:00 9.4° C bedeckt
So, 14.04. 2:00 14.5° C bewölkt
Sa, 13.04. 20:00 20.6° C wolkig
Sa, 13.04. 14:00 19.3° C wolkig
Sa, 13.04. 8:00 12.5° C wolkig
Sa, 13.04. 2:00 13.7° C wolkig
Fr, 12.04. 20:00 16.5° C bedeckt
Fr, 12.04. 14:00 18.5° C leicht bewölkt
Ortszeit Temperatur Wetter
So, 14.04. 12:30 12.3° C wolkig
So, 14.04. 12:20 12.3° C wolkig
So, 14.04. 12:10 12.1° C bedeckt
So, 14.04. 12:00 12.3° C wolkig
So, 14.04. 11:50 12.3° C wolkig
So, 14.04. 11:40 12.6° C bewölkt
So, 14.04. 11:30 12.2° C wolkig
So, 14.04. 11:00 12.1° C wolkig
So, 14.04. 10:30 11.1° C bewölkt
So, 14.04. 10:00 10.6° C leicht bewölkt
So, 14.04. 9:30 10.5° C bedeckt
Ortszeit Relative Feuchte Sichtweite
So, 14.04. 8:00 72% 45 km
So, 14.04. 2:00 74% 60 km
Sa, 13.04. 20:00 59% >70 km
Sa, 13.04. 14:00 62% 55 km
Sa, 13.04. 8:00 84% 50 km
Sa, 13.04. 2:00 78% >70 km
Fr, 12.04. 20:00 65% >70 km
Fr, 12.04. 14:00 60% 50 km
Ortszeit Relative Feuchte Sichtweite
So, 14.04. 12:30 55% >70 km
So, 14.04. 12:20 55% -
So, 14.04. 12:10 53% -
So, 14.04. 12:00 55% 45 km
So, 14.04. 11:50 55% -
So, 14.04. 11:40 57% -
So, 14.04. 11:30 58% >70 km
So, 14.04. 11:00 59% 60 km
So, 14.04. 10:30 62% 50 km
So, 14.04. 10:00 63% 50 km
So, 14.04. 9:30 69% 40 km
Ortszeit Niederschlagsmenge Niederschlagsart
So, 14.04. 8:00 0.0 l/m2 in 12 Std. -
So, 14.04. 2:00 0.0 l/m2 in 6 Std. -
Sa, 13.04. 20:00 0.0 l/m2 in 12 Std. -
Sa, 13.04. 14:00 0.0 l/m2 in 6 Std. -
Sa, 13.04. 8:00 0.0 l/m2 in 12 Std. -
Sa, 13.04. 2:00 0.0 l/m2 in 6 Std. -
Fr, 12.04. 20:00 0.1 l/m2 in 12 Std. -
Fr, 12.04. 14:00 0.1 l/m2 in 6 Std. Sprühregen
Ortszeit Niederschlagsmenge Niederschlagsart
So, 14.04. 12:30 0.0 l/m2 in 30 Min -
So, 14.04. 12:20 keine Meldung -
So, 14.04. 12:10 keine Meldung -
So, 14.04. 12:00 0.0 l/m2 in 1 Std. -
So, 14.04. 11:50 keine Meldung -
So, 14.04. 11:40 keine Meldung -
So, 14.04. 11:30 0.0 l/m2 in 30 Min -
So, 14.04. 11:00 0.0 l/m2 in 1 Std. -
So, 14.04. 10:30 0.0 l/m2 in 30 Min -
So, 14.04. 10:00 0.0 l/m2 in 1 Std. -
So, 14.04. 9:30 0.0 l/m2 in 30 Min -
Ortszeit Stärke Spitze Richtung
km/h Bft. km/h Grad Sektor
So, 14.04. 8:00 14 3 47 270° W
So, 14.04. 2:00 18 3 50 270° W
Sa, 13.04. 20:00 19 3 44 240° SW
Sa, 13.04. 14:00 22 4 41 230° SW
Sa, 13.04. 8:00 13 3 28 220° SW
Sa, 13.04. 2:00 15 3 37 230° SW
Fr, 12.04. 20:00 14 3 50 270° W
Fr, 12.04. 14:00 28 4 50 240° SW
Ortszeit Stärke Spitze Richtung
km/h Bft. km/h Grad Sektor
So, 14.04. 12:30 22 4 36 280° W
So, 14.04. 12:20 22 4 - 280° W
So, 14.04. 12:10 24 4 - 280° W
So, 14.04. 12:00 25 4 40 280° W
So, 14.04. 11:50 25 4 - 280° W
So, 14.04. 11:40 28 4 - 280° W
So, 14.04. 11:30 26 4 37 280° W
So, 14.04. 11:00 22 4 37 270° W
So, 14.04. 10:30 24 4 33 280° W
So, 14.04. 10:00 28 4 35 280° W
So, 14.04. 9:30 24 4 33 260° W
Ortszeit Untergrenze Bedeckung Gattung
total tief tief mittel hoch
So, 14.04. 8:00 4500 m 8/8 8/8 - - -
So, 14.04. 2:00 990 m 8/8 6/8 - - -
Sa, 13.04. 20:00 7800 m 8/8 0/8 - - -
Sa, 13.04. 14:00 1050 m 8/8 2/8 - - -
Sa, 13.04. 8:00 8400 m 8/8 0/8 - - -
Sa, 13.04. 2:00 8100 m 8/8 0/8 - - -
Fr, 12.04. 20:00 4800 m 8/8 8/8 - - -
Fr, 12.04. 14:00 1080 m 7/8 1/8 - - -
Ortszeit Bedeckungsgrad in Achtel und Wolkenuntergrenze
So, 14.04. 12:30 5(1380m) 7(6000m)
So, 14.04. 12:20 5(1380m) 7(6000m)
So, 14.04. 12:10 8
So, 14.04. 12:00 3(1230m) 7(6300m) 7(7500m)
So, 14.04. 11:50 3(1230m) 7(6300m) 7(7500m)
So, 14.04. 11:40 7
So, 14.04. 11:30 1(1140m) 7(6000m) 7(7500m)
So, 14.04. 11:00 3(1080m) 7(5400m) 7(7200m)
So, 14.04. 10:30 6(5400m) 7(7500m)
So, 14.04. 10:00 1(840m) 4(5100m)
So, 14.04. 9:30 8(4800m) 8(7500m)
Ortszeit Luftdruck NN (hPa) Tendenz (hPa in 3 Std.)
So, 14.04. 8:00 1020 + 1,7
So, 14.04. 2:00 1017 + 0,9
Sa, 13.04. 20:00 1017 - 2,3
Sa, 13.04. 14:00 1022 - 1,8
Sa, 13.04. 8:00 1024 + 0,3
Sa, 13.04. 2:00 1025 - 0,7
Fr, 12.04. 20:00 1026 - 0,7
Fr, 12.04. 14:00 1028 - 1,0
Ortszeit Luftdruck NN (hPa) Tendenz (hPa in 3 Std.)
So, 14.04. 12:30 1022 + 0,7
So, 14.04. 12:20 1022 keine Meldung
So, 14.04. 12:10 1022 keine Meldung
So, 14.04. 12:00 1022 + 0,9
So, 14.04. 11:50 1022 keine Meldung
So, 14.04. 11:40 1021 keine Meldung
So, 14.04. 11:30 1022 + 1,1
So, 14.04. 11:00 1021 + 1,1
So, 14.04. 10:30 1021 + 1,0
So, 14.04. 10:00 1021 + 1,6
So, 14.04. 9:30 1021 + 1,3
Ortszeit Schneehöhe (cm)
So, 14.04. 8:00 0
So, 14.04. 2:00 0
Sa, 13.04. 20:00 0
Sa, 13.04. 14:00 0
Sa, 13.04. 8:00 0
Sa, 13.04. 2:00 0
Fr, 12.04. 20:00 0
Fr, 12.04. 14:00 0
Ortszeit Schneehöhe (cm)
So, 14.04. 12:30 0
So, 14.04. 12:20 0
So, 14.04. 12:10 -
So, 14.04. 12:00 0
So, 14.04. 11:50 0
So, 14.04. 11:40 -
So, 14.04. 11:30 0
So, 14.04. 11:00 0
So, 14.04. 10:30 0
So, 14.04. 10:00 0
So, 14.04. 9:30 0
Link zu dieser Seite / Seite empfehlen

Das Wetter in ...